sensor_id;sensor_type;location;lat;lon;timestamp;temperature;humidity
32865;DHT22;19219;44.500;11.188;2023-09-30T00:01:26;16.40;99.90
32865;DHT22;19219;44.500;11.188;2023-09-30T00:03:52;16.50;99.90
32865;DHT22;19219;44.500;11.188;2023-09-30T00:06:19;16.40;99.90
32865;DHT22;19219;44.500;11.188;2023-09-30T00:08:44;16.30;99.90
32865;DHT22;19219;44.500;11.188;2023-09-30T00:11:11;16.20;99.90
32865;DHT22;19219;44.500;11.188;2023-09-30T00:13:36;16.10;99.90
32865;DHT22;19219;44.500;11.188;2023-09-30T00:16:02;16.10;99.90
32865;DHT22;19219;44.500;11.188;2023-09-30T00:18:28;16.10;99.90
32865;DHT22;19219;44.500;11.188;2023-09-30T00:20:54;16.10;99.90
32865;DHT22;19219;44.500;11.188;2023-09-30T00:23:19;16.10;99.90
32865;DHT22;19219;44.500;11.188;2023-09-30T00:25:47;16.20;99.90
32865;DHT22;19219;44.500;11.188;2023-09-30T00:28:15;16.30;99.90
32865;DHT22;19219;44.500;11.188;2023-09-30T00:30:41;16.30;99.90
32865;DHT22;19219;44.500;11.188;2023-09-30T00:33:07;16.30;99.90
32865;DHT22;19219;44.500;11.188;2023-09-30T00:35:33;16.10;99.90
32865;DHT22;19219;44.500;11.188;2023-09-30T00:37:59;16.00;99.90
32865;DHT22;19219;44.500;11.188;2023-09-30T00:40:24;15.90;99.90
32865;DHT22;19219;44.500;11.188;2023-09-30T00:42:50;15.80;99.90
32865;DHT22;19219;44.500;11.188;2023-09-30T00:45:16;15.80;99.90
32865;DHT22;19219;44.500;11.188;2023-09-30T00:47:41;15.70;99.90
32865;DHT22;19219;44.500;11.188;2023-09-30T00:50:07;15.70;99.90
32865;DHT22;19219;44.500;11.188;2023-09-30T00:52:36;15.80;99.90
32865;DHT22;19219;44.500;11.188;2023-09-30T00:55:04;15.90;99.90
32865;DHT22;19219;44.500;11.188;2023-09-30T00:57:31;16.00;99.90
32865;DHT22;19219;44.500;11.188;2023-09-30T00:59:57;16.10;99.90
32865;DHT22;19219;44.500;11.188;2023-09-30T01:02:24;16.20;99.90
32865;DHT22;19219;44.500;11.188;2023-09-30T01:04:50;16.10;99.90
32865;DHT22;19219;44.500;11.188;2023-09-30T01:07:16;16.10;99.90
32865;DHT22;19219;44.500;11.188;2023-09-30T01:09:41;16.10;99.90
32865;DHT22;19219;44.500;11.188;2023-09-30T01:12:07;16.10;99.90
32865;DHT22;19219;44.500;11.188;2023-09-30T01:14:34;16.00;99.90
32865;DHT22;19219;44.500;11.188;2023-09-30T01:17:01;15.90;99.90
32865;DHT22;19219;44.500;11.188;2023-09-30T01:19:27;15.80;99.90
32865;DHT22;19219;44.500;11.188;2023-09-30T01:21:54;15.70;99.90
32865;DHT22;19219;44.500;11.188;2023-09-30T01:24:29;15.50;99.90
32865;DHT22;19219;44.500;11.188;2023-09-30T01:26:57;15.40;99.90
32865;DHT22;19219;44.500;11.188;2023-09-30T01:29:23;15.30;99.90
32865;DHT22;19219;44.500;11.188;2023-09-30T01:31:51;15.20;99.90
32865;DHT22;19219;44.500;11.188;2023-09-30T01:34:17;15.20;99.90
32865;DHT22;19219;44.500;11.188;2023-09-30T01:36:43;15.20;99.90
32865;DHT22;19219;44.500;11.188;2023-09-30T01:39:12;15.30;99.90
32865;DHT22;19219;44.500;11.188;2023-09-30T01:41:39;15.30;99.90
32865;DHT22;19219;44.500;11.188;2023-09-30T01:44:06;15.30;99.90
32865;DHT22;19219;44.500;11.188;2023-09-30T01:46:31;15.30;99.90
32865;DHT22;19219;44.500;11.188;2023-09-30T01:48:57;15.30;99.90
32865;DHT22;19219;44.500;11.188;2023-09-30T01:51:23;15.30;99.90
32865;DHT22;19219;44.500;11.188;2023-09-30T01:53:49;15.30;99.90
32865;DHT22;19219;44.500;11.188;2023-09-30T01:56:16;15.20;99.90
32865;DHT22;19219;44.500;11.188;2023-09-30T01:58:42;15.30;99.90
32865;DHT22;19219;44.500;11.188;2023-09-30T02:01:08;15.40;99.90
32865;DHT22;19219;44.500;11.188;2023-09-30T02:03:34;15.50;99.90
32865;DHT22;19219;44.500;11.188;2023-09-30T02:05:59;15.50;99.90
32865;DHT22;19219;44.500;11.188;2023-09-30T02:08:25;15.50;99.90
32865;DHT22;19219;44.500;11.188;2023-09-30T02:10:51;15.50;99.90
32865;DHT22;19219;44.500;11.188;2023-09-30T02:13:18;15.40;99.90
32865;DHT22;19219;44.500;11.188;2023-09-30T02:15:43;15.40;99.90
32865;DHT22;19219;44.500;11.188;2023-09-30T02:18:10;15.30;99.90
32865;DHT22;19219;44.500;11.188;2023-09-30T02:20:36;15.30;99.90
32865;DHT22;19219;44.500;11.188;2023-09-30T02:23:09;15.30;99.90
32865;DHT22;19219;44.500;11.188;2023-09-30T02:25:39;15.30;99.90
32865;DHT22;19219;44.500;11.188;2023-09-30T02:28:08;15.30;99.90
32865;DHT22;19219;44.500;11.188;2023-09-30T02:30:34;15.30;99.90
32865;DHT22;19219;44.500;11.188;2023-09-30T02:33:00;15.30;99.90
32865;DHT22;19219;44.500;11.188;2023-09-30T02:35:26;15.20;99.90
32865;DHT22;19219;44.500;11.188;2023-09-30T02:37:52;15.20;99.90
32865;DHT22;19219;44.500;11.188;2023-09-30T02:40:19;15.10;99.90
32865;DHT22;19219;44.500;11.188;2023-09-30T02:42:45;15.10;99.90
32865;DHT22;19219;44.500;11.188;2023-09-30T02:45:14;15.00;99.90
32865;DHT22;19219;44.500;11.188;2023-09-30T02:47:39;15.00;99.90
32865;DHT22;19219;44.500;11.188;2023-09-30T02:50:07;14.90;99.90
32865;DHT22;19219;44.500;11.188;2023-09-30T02:52:42;14.80;99.90
32865;DHT22;19219;44.500;11.188;2023-09-30T02:55:11;14.80;99.90
32865;DHT22;19219;44.500;11.188;2023-09-30T02:57:37;14.80;99.90
32865;DHT22;19219;44.500;11.188;2023-09-30T03:00:08;14.90;99.90
32865;DHT22;19219;44.500;11.188;2023-09-30T03:02:55;14.80;99.90
32865;DHT22;19219;44.500;11.188;2023-09-30T03:05:21;14.80;99.90
32865;DHT22;19219;44.500;11.188;2023-09-30T03:07:48;14.80;99.90
32865;DHT22;19219;44.500;11.188;2023-09-30T03:10:16;14.70;99.90
32865;DHT22;19219;44.500;11.188;2023-09-30T03:12:56;14.70;99.90
32865;DHT22;19219;44.500;11.188;2023-09-30T03:15:27;14.60;99.90
32865;DHT22;19219;44.500;11.188;2023-09-30T03:17:54;14.50;99.90
32865;DHT22;19219;44.500;11.188;2023-09-30T03:20:21;14.60;99.90
32865;DHT22;19219;44.500;11.188;2023-09-30T03:22:47;14.60;99.90
32865;DHT22;19219;44.500;11.188;2023-09-30T03:25:15;14.70;99.90
32865;DHT22;19219;44.500;11.188;2023-09-30T03:27:43;14.70;99.90
32865;DHT22;19219;44.500;11.188;2023-09-30T03:30:09;14.70;99.90
32865;DHT22;19219;44.500;11.188;2023-09-30T03:32:38;14.70;99.90
32865;DHT22;19219;44.500;11.188;2023-09-30T03:35:05;14.60;99.90
32865;DHT22;19219;44.500;11.188;2023-09-30T03:37:34;14.50;99.90
32865;DHT22;19219;44.500;11.188;2023-09-30T03:40:00;14.50;99.90
32865;DHT22;19219;44.500;11.188;2023-09-30T03:42:32;14.50;99.90
32865;DHT22;19219;44.500;11.188;2023-09-30T03:44:58;14.30;99.90
32865;DHT22;19219;44.500;11.188;2023-09-30T03:47:24;14.20;99.90
32865;DHT22;19219;44.500;11.188;2023-09-30T03:49:50;14.20;99.90
32865;DHT22;19219;44.500;11.188;2023-09-30T03:52:15;14.10;99.90
32865;DHT22;19219;44.500;11.188;2023-09-30T03:54:41;14.10;99.90
32865;DHT22;19219;44.500;11.188;2023-09-30T03:57:07;14.60;99.90
32865;DHT22;19219;44.500;11.188;2023-09-30T03:59:32;14.20;99.90
32865;DHT22;19219;44.500;11.188;2023-09-30T04:01:59;14.20;99.90
32865;DHT22;19219;44.500;11.188;2023-09-30T04:04:25;14.20;99.90
32865;DHT22;19219;44.500;11.188;2023-09-30T04:06:51;14.20;99.90
32865;DHT22;19219;44.500;11.188;2023-09-30T04:09:17;14.10;99.90
32865;DHT22;19219;44.500;11.188;2023-09-30T04:11:43;14.10;99.90
32865;DHT22;19219;44.500;11.188;2023-09-30T04:14:10;14.10;99.90
32865;DHT22;19219;44.500;11.188;2023-09-30T04:16:36;14.10;99.90
32865;DHT22;19219;44.500;11.188;2023-09-30T04:19:03;14.00;99.90
32865;DHT22;19219;44.500;11.188;2023-09-30T04:21:30;14.00;99.90
32865;DHT22;19219;44.500;11.188;2023-09-30T04:23:56;14.00;99.90
32865;DHT22;19219;44.500;11.188;2023-09-30T04:26:22;13.90;99.90
32865;DHT22;19219;44.500;11.188;2023-09-30T04:28:48;13.80;99.90
32865;DHT22;19219;44.500;11.188;2023-09-30T04:31:14;13.80;99.90
32865;DHT22;19219;44.500;11.188;2023-09-30T04:33:40;13.80;99.90
32865;DHT22;19219;44.500;11.188;2023-09-30T04:36:06;13.80;99.90
32865;DHT22;19219;44.500;11.188;2023-09-30T04:38:36;13.80;99.90
32865;DHT22;19219;44.500;11.188;2023-09-30T04:41:04;13.80;99.90
32865;DHT22;19219;44.500;11.188;2023-09-30T04:43:33;13.90;99.90
32865;DHT22;19219;44.500;11.188;2023-09-30T04:45:59;13.90;99.90
32865;DHT22;19219;44.500;11.188;2023-09-30T04:48:25;13.80;99.90
32865;DHT22;19219;44.500;11.188;2023-09-30T04:50:51;13.70;99.90
32865;DHT22;19219;44.500;11.188;2023-09-30T04:53:18;13.70;99.90
32865;DHT22;19219;44.500;11.188;2023-09-30T04:55:44;13.60;99.90
32865;DHT22;19219;44.500;11.188;2023-09-30T04:58:10;13.50;99.90
32865;DHT22;19219;44.500;11.188;2023-09-30T05:00:36;13.50;99.90
32865;DHT22;19219;44.500;11.188;2023-09-30T05:03:02;13.50;99.90
32865;DHT22;19219;44.500;11.188;2023-09-30T05:05:30;13.50;99.90
32865;DHT22;19219;44.500;11.188;2023-09-30T05:07:56;13.50;99.90
32865;DHT22;19219;44.500;11.188;2023-09-30T05:10:24;13.50;99.90
32865;DHT22;19219;44.500;11.188;2023-09-30T05:12:50;13.60;99.90
32865;DHT22;19219;44.500;11.188;2023-09-30T05:15:20;13.60;99.90
32865;DHT22;19219;44.500;11.188;2023-09-30T05:17:46;13.60;99.90
32865;DHT22;19219;44.500;11.188;2023-09-30T05:20:13;13.60;99.90
32865;DHT22;19219;44.500;11.188;2023-09-30T05:22:42;13.10;99.90
32865;DHT22;19219;44.500;11.188;2023-09-30T05:25:14;13.70;99.90
32865;DHT22;19219;44.500;11.188;2023-09-30T05:27:44;13.70;99.90
32865;DHT22;19219;44.500;11.188;2023-09-30T05:30:10;13.60;99.90
32865;DHT22;19219;44.500;11.188;2023-09-30T05:32:40;13.50;99.90
32865;DHT22;19219;44.500;11.188;2023-09-30T05:35:06;13.60;99.90
32865;DHT22;19219;44.500;11.188;2023-09-30T05:37:41;13.70;99.90
32865;DHT22;19219;44.500;11.188;2023-09-30T05:40:08;13.80;99.90
32865;DHT22;19219;44.500;11.188;2023-09-30T05:42:48;13.90;99.90
32865;DHT22;19219;44.500;11.188;2023-09-30T05:45:16;13.90;99.90
32865;DHT22;19219;44.500;11.188;2023-09-30T05:47:42;13.90;99.90
32865;DHT22;19219;44.500;11.188;2023-09-30T05:50:09;14.00;99.90
32865;DHT22;19219;44.500;11.188;2023-09-30T05:52:40;14.00;99.90
32865;DHT22;19219;44.500;11.188;2023-09-30T05:55:06;14.10;99.90
32865;DHT22;19219;44.500;11.188;2023-09-30T05:57:32;14.30;99.90
32865;DHT22;19219;44.500;11.188;2023-09-30T05:59:59;14.30;99.90
32865;DHT22;19219;44.500;11.188;2023-09-30T06:02:24;14.50;99.90
32865;DHT22;19219;44.500;11.188;2023-09-30T06:04:50;14.60;99.90
32865;DHT22;19219;44.500;11.188;2023-09-30T06:07:18;14.60;99.90
32865;DHT22;19219;44.500;11.188;2023-09-30T06:09:45;14.80;99.90
32865;DHT22;19219;44.500;11.188;2023-09-30T06:12:13;15.00;99.90
32865;DHT22;19219;44.500;11.188;2023-09-30T06:14:39;15.10;99.90
32865;DHT22;19219;44.500;11.188;2023-09-30T06:17:07;15.30;99.90
32865;DHT22;19219;44.500;11.188;2023-09-30T06:19:32;15.40;99.90
32865;DHT22;19219;44.500;11.188;2023-09-30T06:21:58;15.50;99.90
32865;DHT22;19219;44.500;11.188;2023-09-30T06:24:24;15.70;99.90
32865;DHT22;19219;44.500;11.188;2023-09-30T06:26:50;15.80;99.90
32865;DHT22;19219;44.500;11.188;2023-09-30T06:29:17;16.00;99.90
32865;DHT22;19219;44.500;11.188;2023-09-30T06:31:42;16.10;99.90
32865;DHT22;19219;44.500;11.188;2023-09-30T06:34:09;16.30;99.90
32865;DHT22;19219;44.500;11.188;2023-09-30T06:36:36;16.40;99.90
32865;DHT22;19219;44.500;11.188;2023-09-30T06:39:03;16.50;99.90
32865;DHT22;19219;44.500;11.188;2023-09-30T06:41:31;16.70;99.90
32865;DHT22;19219;44.500;11.188;2023-09-30T06:43:57;17.00;99.90
32865;DHT22;19219;44.500;11.188;2023-09-30T06:46:23;17.60;99.90
32865;DHT22;19219;44.500;11.188;2023-09-30T06:48:49;18.90;99.90
32865;DHT22;19219;44.500;11.188;2023-09-30T06:51:17;20.60;99.90
32865;DHT22;19219;44.500;11.188;2023-09-30T06:53:43;22.10;99.90
32865;DHT22;19219;44.500;11.188;2023-09-30T06:56:09;24.00;99.90
32865;DHT22;19219;44.500;11.188;2023-09-30T06:58:35;25.70;99.90
32865;DHT22;19219;44.500;11.188;2023-09-30T07:01:01;27.00;99.90
32865;DHT22;19219;44.500;11.188;2023-09-30T07:03:26;27.90;99.90
32865;DHT22;19219;44.500;11.188;2023-09-30T07:05:53;28.80;98.10
32865;DHT22;19219;44.500;11.188;2023-09-30T07:08:19;29.60;95.20
32865;DHT22;19219;44.500;11.188;2023-09-30T07:10:47;30.30;92.90
32865;DHT22;19219;44.500;11.188;2023-09-30T07:13:16;30.90;91.10
32865;DHT22;19219;44.500;11.188;2023-09-30T07:15:42;31.40;88.10
32865;DHT22;19219;44.500;11.188;2023-09-30T07:18:08;30.70;85.40
32865;DHT22;19219;44.500;11.188;2023-09-30T07:20:34;30.60;85.80
32865;DHT22;19219;44.500;11.188;2023-09-30T07:23:00;30.00;86.00
32865;DHT22;19219;44.500;11.188;2023-09-30T07:25:27;30.50;86.00
32865;DHT22;19219;44.500;11.188;2023-09-30T07:27:53;31.20;83.20
32865;DHT22;19219;44.500;11.188;2023-09-30T07:30:18;31.90;81.40
32865;DHT22;19219;44.500;11.188;2023-09-30T07:32:44;32.40;78.00
32865;DHT22;19219;44.500;11.188;2023-09-30T07:35:11;32.70;74.90
32865;DHT22;19219;44.500;11.188;2023-09-30T07:37:39;31.80;74.30
32865;DHT22;19219;44.500;11.188;2023-09-30T07:40:05;31.00;76.80
32865;DHT22;19219;44.500;11.188;2023-09-30T07:42:32;30.80;79.70
32865;DHT22;19219;44.500;11.188;2023-09-30T07:44:58;31.20;79.40
32865;DHT22;19219;44.500;11.188;2023-09-30T07:47:24;30.40;79.40
32865;DHT22;19219;44.500;11.188;2023-09-30T07:49:50;30.70;79.20
32865;DHT22;19219;44.500;11.188;2023-09-30T07:52:16;31.10;78.60
32865;DHT22;19219;44.500;11.188;2023-09-30T07:54:41;31.20;77.80
32865;DHT22;19219;44.500;11.188;2023-09-30T07:57:07;31.50;76.60
32865;DHT22;19219;44.500;11.188;2023-09-30T07:59:33;32.30;75.30
32865;DHT22;19219;44.500;11.188;2023-09-30T08:01:59;32.50;77.10
32865;DHT22;19219;44.500;11.188;2023-09-30T08:04:24;33.20;73.80
32865;DHT22;19219;44.500;11.188;2023-09-30T08:06:50;33.60;73.50
32865;DHT22;19219;44.500;11.188;2023-09-30T08:09:16;34.20;71.30
32865;DHT22;19219;44.500;11.188;2023-09-30T08:11:44;34.10;71.10
32865;DHT22;19219;44.500;11.188;2023-09-30T08:14:09;35.00;69.90
32865;DHT22;19219;44.500;11.188;2023-09-30T08:16:36;34.70;67.00
32865;DHT22;19219;44.500;11.188;2023-09-30T08:19:02;34.80;66.00
32865;DHT22;19219;44.500;11.188;2023-09-30T08:21:29;34.90;64.70
32865;DHT22;19219;44.500;11.188;2023-09-30T08:23:56;35.30;65.00
32865;DHT22;19219;44.500;11.188;2023-09-30T08:26:22;35.40;64.40
32865;DHT22;19219;44.500;11.188;2023-09-30T08:28:48;35.50;63.70
32865;DHT22;19219;44.500;11.188;2023-09-30T08:31:14;35.40;63.70
32865;DHT22;19219;44.500;11.188;2023-09-30T08:33:39;35.90;62.80
32865;DHT22;19219;44.500;11.188;2023-09-30T08:36:07;35.80;62.50
32865;DHT22;19219;44.500;11.188;2023-09-30T08:38:42;36.10;59.80
32865;DHT22;19219;44.500;11.188;2023-09-30T08:41:09;35.70;58.90
32865;DHT22;19219;44.500;11.188;2023-09-30T08:43:40;34.70;60.70
32865;DHT22;19219;44.500;11.188;2023-09-30T08:46:07;34.80;62.10
32865;DHT22;19219;44.500;11.188;2023-09-30T08:48:33;34.90;61.10
32865;DHT22;19219;44.500;11.188;2023-09-30T08:51:00;35.00;60.30
32865;DHT22;19219;44.500;11.188;2023-09-30T08:53:30;35.60;59.60
32865;DHT22;19219;44.500;11.188;2023-09-30T08:55:58;34.90;60.30
32865;DHT22;19219;44.500;11.188;2023-09-30T08:58:28;35.30;59.30
32865;DHT22;19219;44.500;11.188;2023-09-30T09:00:55;34.60;58.70
32865;DHT22;19219;44.500;11.188;2023-09-30T09:03:21;34.50;58.70
32865;DHT22;19219;44.500;11.188;2023-09-30T09:05:56;35.40;57.90
32865;DHT22;19219;44.500;11.188;2023-09-30T09:08:26;36.30;57.30
32865;DHT22;19219;44.500;11.188;2023-09-30T09:10:57;36.70;56.30
32865;DHT22;19219;44.500;11.188;2023-09-30T09:13:26;37.50;55.40
32865;DHT22;19219;44.500;11.188;2023-09-30T09:16:08;36.80;53.40
32865;DHT22;19219;44.500;11.188;2023-09-30T09:18:35;36.80;53.90
32865;DHT22;19219;44.500;11.188;2023-09-30T09:21:09;35.90;54.10
32865;DHT22;19219;44.500;11.188;2023-09-30T09:23:42;34.60;54.40
32865;DHT22;19219;44.500;11.188;2023-09-30T09:26:13;34.20;55.60
32865;DHT22;19219;44.500;11.188;2023-09-30T09:28:48;33.80;57.10
32865;DHT22;19219;44.500;11.188;2023-09-30T09:31:25;33.10;56.60
32865;DHT22;19219;44.500;11.188;2023-09-30T09:33:51;32.60;57.60
32865;DHT22;19219;44.500;11.188;2023-09-30T09:36:17;32.60;57.80
32865;DHT22;19219;44.500;11.188;2023-09-30T09:38:50;32.30;57.30
32865;DHT22;19219;44.500;11.188;2023-09-30T09:41:19;33.40;57.50
32865;DHT22;19219;44.500;11.188;2023-09-30T09:43:48;34.20;55.80
32865;DHT22;19219;44.500;11.188;2023-09-30T09:46:13;34.50;56.20
32865;DHT22;19219;44.500;11.188;2023-09-30T09:48:39;35.00;55.50
32865;DHT22;19219;44.500;11.188;2023-09-30T09:51:05;35.40;55.70
32865;DHT22;19219;44.500;11.188;2023-09-30T09:53:35;35.00;54.50
32865;DHT22;19219;44.500;11.188;2023-09-30T09:56:02;34.90;56.50
32865;DHT22;19219;44.500;11.188;2023-09-30T09:58:33;35.00;55.90
32865;DHT22;19219;44.500;11.188;2023-09-30T10:01:01;34.50;56.40
32865;DHT22;19219;44.500;11.188;2023-09-30T10:03:27;33.80;56.90
32865;DHT22;19219;44.500;11.188;2023-09-30T10:05:53;33.50;57.00
32865;DHT22;19219;44.500;11.188;2023-09-30T10:08:21;33.10;57.60
32865;DHT22;19219;44.500;11.188;2023-09-30T10:10:52;32.10;57.30
32865;DHT22;19219;44.500;11.188;2023-09-30T10:13:54;31.00;60.50
32865;DHT22;19219;44.500;11.188;2023-09-30T10:19:12;30.90;61.40
32865;DHT22;19219;44.500;11.188;2023-09-30T10:21:38;31.00;61.50
32865;DHT22;19219;44.500;11.188;2023-09-30T10:40:51;31.00;62.00
32865;DHT22;19219;44.500;11.188;2023-09-30T10:43:43;30.90;62.10
32865;DHT22;19219;44.500;11.188;2023-09-30T10:48:52;30.30;62.30
32865;DHT22;19219;44.500;11.188;2023-09-30T10:51:20;30.20;62.50
32865;DHT22;19219;44.500;11.188;2023-09-30T10:53:50;30.10;62.90
32865;DHT22;19219;44.500;11.188;2023-09-30T10:56:23;30.00;63.50
32865;DHT22;19219;44.500;11.188;2023-09-30T10:58:52;30.30;65.90
32865;DHT22;19219;44.500;11.188;2023-09-30T11:01:23;30.40;65.10
32865;DHT22;19219;44.500;11.188;2023-09-30T11:03:50;30.60;65.80
32865;DHT22;19219;44.500;11.188;2023-09-30T11:06:20;30.60;62.30
32865;DHT22;19219;44.500;11.188;2023-09-30T11:08:57;30.60;62.80
32865;DHT22;19219;44.500;11.188;2023-09-30T11:11:48;30.60;63.90
32865;DHT22;19219;44.500;11.188;2023-09-30T11:14:31;30.30;62.30
32865;DHT22;19219;44.500;11.188;2023-09-30T11:17:01;30.30;62.80
32865;DHT22;19219;44.500;11.188;2023-09-30T11:19:49;30.40;63.20
32865;DHT22;19219;44.500;11.188;2023-09-30T11:22:15;30.40;61.80
32865;DHT22;19219;44.500;11.188;2023-09-30T11:24:41;30.40;62.80
32865;DHT22;19219;44.500;11.188;2023-09-30T11:27:07;30.10;61.60
32865;DHT22;19219;44.500;11.188;2023-09-30T11:29:32;29.90;61.70
32865;DHT22;19219;44.500;11.188;2023-09-30T11:31:58;29.80;60.10
32865;DHT22;19219;44.500;11.188;2023-09-30T11:34:34;29.80;59.60
32865;DHT22;19219;44.500;11.188;2023-09-30T11:37:01;29.90;60.00
32865;DHT22;19219;44.500;11.188;2023-09-30T11:39:29;29.90;60.40
32865;DHT22;19219;44.500;11.188;2023-09-30T11:41:55;30.00;62.00
32865;DHT22;19219;44.500;11.188;2023-09-30T11:44:23;29.80;60.60
32865;DHT22;19219;44.500;11.188;2023-09-30T11:47:02;29.60;61.50
32865;DHT22;19219;44.500;11.188;2023-09-30T11:52:02;29.30;60.90
32865;DHT22;19219;44.500;11.188;2023-09-30T11:54:35;29.30;57.90
32865;DHT22;19219;44.500;11.188;2023-09-30T11:57:09;29.20;57.60
32865;DHT22;19219;44.500;11.188;2023-09-30T11:59:35;29.30;59.60
32865;DHT22;19219;44.500;11.188;2023-09-30T12:02:02;29.10;59.70
32865;DHT22;19219;44.500;11.188;2023-09-30T12:04:29;29.00;59.50
32865;DHT22;19219;44.500;11.188;2023-09-30T12:06:55;29.00;59.80
32865;DHT22;19219;44.500;11.188;2023-09-30T12:09:21;29.10;59.80
32865;DHT22;19219;44.500;11.188;2023-09-30T12:11:53;29.10;57.50
32865;DHT22;19219;44.500;11.188;2023-09-30T12:14:19;29.20;57.80
32865;DHT22;19219;44.500;11.188;2023-09-30T12:16:46;29.30;56.80
32865;DHT22;19219;44.500;11.188;2023-09-30T12:19:13;29.20;56.70
32865;DHT22;19219;44.500;11.188;2023-09-30T12:21:41;29.20;56.80
32865;DHT22;19219;44.500;11.188;2023-09-30T12:24:07;29.10;58.90
32865;DHT22;19219;44.500;11.188;2023-09-30T12:26:35;29.10;60.90
32865;DHT22;19219;44.500;11.188;2023-09-30T12:29:01;29.10;59.80
32865;DHT22;19219;44.500;11.188;2023-09-30T12:31:27;29.10;60.50
32865;DHT22;19219;44.500;11.188;2023-09-30T12:33:53;29.20;59.40
32865;DHT22;19219;44.500;11.188;2023-09-30T12:36:23;29.30;59.50
32865;DHT22;19219;44.500;11.188;2023-09-30T12:38:49;29.50;59.10
32865;DHT22;19219;44.500;11.188;2023-09-30T12:41:15;29.50;59.50
32865;DHT22;19219;44.500;11.188;2023-09-30T12:43:41;29.40;58.50
32865;DHT22;19219;44.500;11.188;2023-09-30T12:46:08;29.50;58.60
32865;DHT22;19219;44.500;11.188;2023-09-30T12:48:34;29.50;59.00
32865;DHT22;19219;44.500;11.188;2023-09-30T12:51:01;29.50;57.30
32865;DHT22;19219;44.500;11.188;2023-09-30T12:53:29;29.40;56.40
32865;DHT22;19219;44.500;11.188;2023-09-30T12:55:56;29.30;57.00
32865;DHT22;19219;44.500;11.188;2023-09-30T12:58:21;29.20;56.80
32865;DHT22;19219;44.500;11.188;2023-09-30T13:00:47;29.20;57.50
32865;DHT22;19219;44.500;11.188;2023-09-30T13:03:13;29.20;56.60
32865;DHT22;19219;44.500;11.188;2023-09-30T13:05:41;29.20;57.70
32865;DHT22;19219;44.500;11.188;2023-09-30T13:08:06;29.20;57.80
32865;DHT22;19219;44.500;11.188;2023-09-30T13:10:32;29.20;57.30
32865;DHT22;19219;44.500;11.188;2023-09-30T13:12:58;29.10;58.60
32865;DHT22;19219;44.500;11.188;2023-09-30T13:15:23;29.10;58.70
32865;DHT22;19219;44.500;11.188;2023-09-30T13:17:51;29.10;58.50
32865;DHT22;19219;44.500;11.188;2023-09-30T13:20:17;29.00;58.80
32865;DHT22;19219;44.500;11.188;2023-09-30T13:22:43;29.00;58.70
32865;DHT22;19219;44.500;11.188;2023-09-30T13:25:08;29.00;58.60
32865;DHT22;19219;44.500;11.188;2023-09-30T13:27:36;29.10;58.70
32865;DHT22;19219;44.500;11.188;2023-09-30T13:30:02;29.20;59.90
32865;DHT22;19219;44.500;11.188;2023-09-30T13:32:28;28.90;59.40
32865;DHT22;19219;44.500;11.188;2023-09-30T13:34:54;28.90;60.50
32865;DHT22;19219;44.500;11.188;2023-09-30T13:37:20;28.90;60.10
32865;DHT22;19219;44.500;11.188;2023-09-30T13:39:45;28.90;59.90
32865;DHT22;19219;44.500;11.188;2023-09-30T13:42:11;29.00;61.30
32865;DHT22;19219;44.500;11.188;2023-09-30T13:44:37;29.00;61.50
32865;DHT22;19219;44.500;11.188;2023-09-30T13:47:03;28.90;61.10
32865;DHT22;19219;44.500;11.188;2023-09-30T13:49:29;28.70;62.10
32865;DHT22;19219;44.500;11.188;2023-09-30T13:51:56;28.50;62.90
32865;DHT22;19219;44.500;11.188;2023-09-30T13:54:22;28.50;62.60
32865;DHT22;19219;44.500;11.188;2023-09-30T13:56:47;28.60;62.30
32865;DHT22;19219;44.500;11.188;2023-09-30T13:59:13;28.70;61.20
32865;DHT22;19219;44.500;11.188;2023-09-30T14:01:39;28.80;60.70
32865;DHT22;19219;44.500;11.188;2023-09-30T14:04:08;28.80;60.20
32865;DHT22;19219;44.500;11.188;2023-09-30T14:06:34;28.90;60.60
32865;DHT22;19219;44.500;11.188;2023-09-30T14:08:59;28.90;61.90
32865;DHT22;19219;44.500;11.188;2023-09-30T14:11:26;29.10;62.50
32865;DHT22;19219;44.500;11.188;2023-09-30T14:13:52;29.00;60.20
32865;DHT22;19219;44.500;11.188;2023-09-30T14:16:17;29.10;59.10
32865;DHT22;19219;44.500;11.188;2023-09-30T14:18:43;29.10;59.20
32865;DHT22;19219;44.500;11.188;2023-09-30T14:21:10;29.20;59.70
32865;DHT22;19219;44.500;11.188;2023-09-30T14:23:36;29.20;60.60
32865;DHT22;19219;44.500;11.188;2023-09-30T14:26:01;29.20;59.70
32865;DHT22;19219;44.500;11.188;2023-09-30T14:28:36;29.30;59.20
32865;DHT22;19219;44.500;11.188;2023-09-30T14:31:03;29.20;59.40
32865;DHT22;19219;44.500;11.188;2023-09-30T14:33:29;29.30;59.80
32865;DHT22;19219;44.500;11.188;2023-09-30T14:35:55;29.30;59.50
32865;DHT22;19219;44.500;11.188;2023-09-30T14:38:22;29.30;59.30
32865;DHT22;19219;44.500;11.188;2023-09-30T14:40:48;29.20;58.50
32865;DHT22;19219;44.500;11.188;2023-09-30T14:43:15;29.20;59.70
32865;DHT22;19219;44.500;11.188;2023-09-30T14:45:41;29.30;58.60
32865;DHT22;19219;44.500;11.188;2023-09-30T14:48:08;29.30;57.50
32865;DHT22;19219;44.500;11.188;2023-09-30T14:50:33;29.30;57.20
32865;DHT22;19219;44.500;11.188;2023-09-30T14:52:59;29.30;57.90
32865;DHT22;19219;44.500;11.188;2023-09-30T14:55:25;29.30;58.00
32865;DHT22;19219;44.500;11.188;2023-09-30T14:57:50;29.30;57.40
32865;DHT22;19219;44.500;11.188;2023-09-30T15:00:16;29.20;57.90
32865;DHT22;19219;44.500;11.188;2023-09-30T15:02:42;29.30;57.40
32865;DHT22;19219;44.500;11.188;2023-09-30T15:05:08;29.30;57.90
32865;DHT22;19219;44.500;11.188;2023-09-30T15:07:34;29.30;57.80
32865;DHT22;19219;44.500;11.188;2023-09-30T15:10:04;29.40;57.50
32865;DHT22;19219;44.500;11.188;2023-09-30T15:12:30;29.40;57.00
32865;DHT22;19219;44.500;11.188;2023-09-30T15:14:55;29.30;56.60
32865;DHT22;19219;44.500;11.188;2023-09-30T15:17:21;29.40;56.90
32865;DHT22;19219;44.500;11.188;2023-09-30T15:19:47;29.40;57.00
32865;DHT22;19219;44.500;11.188;2023-09-30T15:22:12;29.30;57.40
32865;DHT22;19219;44.500;11.188;2023-09-30T15:24:38;29.30;56.80
32865;DHT22;19219;44.500;11.188;2023-09-30T15:27:04;29.20;56.30
32865;DHT22;19219;44.500;11.188;2023-09-30T15:29:30;29.20;57.60
32865;DHT22;19219;44.500;11.188;2023-09-30T15:31:56;29.00;56.90
32865;DHT22;19219;44.500;11.188;2023-09-30T15:34:21;28.90;57.00
32865;DHT22;19219;44.500;11.188;2023-09-30T15:36:48;28.80;58.10
32865;DHT22;19219;44.500;11.188;2023-09-30T15:39:13;28.70;57.50
32865;DHT22;19219;44.500;11.188;2023-09-30T15:41:39;28.60;58.10